MSC Bettina — HPFG — position and weather

sailwx.info

Track history (hours):
 
Tides and Currents Weather Stations Pressure Air Temp Water Temp Dewpoint Dewpoint Depression Visibility Wind Speed Wind Dir Waves Ship Positions

MSC Bettina

Last reported at 2017-Mar-23 11:33 UTC. Time now 2017-Mar-23 22:23 UTC.
Position N 41°04' E 003°31'.

Length 366 m; draft 12 m.

Type: Ship (hazmat cat A). MMSI: 352361000.

Date/timePositionNaut miles runAvg speedWind from/ knotsBaromVisibWave heightAir tempDewpointWater temp
2017-Mar-23 11:33N 41°04' E 003°31'1515.3
2017-Mar-23 10:33N 40°56' E 003°14'1919.5
2017-Mar-23 09:33N 40°46' E 002°52'2020.0
2017-Mar-23 08:33N 40°36' E 002°30'2019.7
2017-Mar-23 07:33N 40°25' E 002°08'2019.6
2017-Mar-23 06:33N 40°15' E 001°46'2019.9
2017-Mar-23 05:34N 40°04' E 001°24'8220.5
2017-Mar-23 01:34N 39°27' W 000°11'7 6.7
2017-Mar-23 00:33N 39°26' W 000°20'0 0.0
2017-Mar-22 23:31N 39°26' W 000°20'0 0.0
2017-Mar-22 22:31N 39°26' W 000°20'0 0.0
2017-Mar-22 21:31N 39°26' W 000°20'0 0.0
2017-Mar-22 20:31N 39°26' W 000°20'0 0.0
2017-Mar-22 19:31N 39°26' W 000°20'0 0.0
2017-Mar-22 18:31N 39°26' W 000°20'0 0.0
2017-Mar-22 17:31N 39°26' W 000°20'0 0.0
2017-Mar-22 16:31N 39°26' W 000°20'0 0.0
2017-Mar-22 15:31N 39°26' W 000°20'0 0.0
2017-Mar-22 14:31N 39°26' W 000°20'0 0.0
2017-Mar-22 13:31N 39°26' W 000°20'0 0.0
2017-Mar-22 12:31N 39°26' W 000°20'0 0.0
2017-Mar-22 11:31N 39°26' W 000°20'0 0.0
2017-Mar-22 10:31N 39°26' W 000°20'0 0.0
2017-Mar-22 09:31N 39°26' W 000°20'0 0.0
2017-Mar-22 08:31N 39°26' W 000°20'0 0.0
2017-Mar-22 07:31N 39°26' W 000°20'0 0.0
2017-Mar-22 06:31N 39°26' W 000°20'0 0.0
2017-Mar-22 05:31N 39°26' W 000°20'0 0.0
2017-Mar-22 04:31N 39°26' W 000°20'0 0.0
2017-Mar-22 03:31N 39°26' W 000°20'0 0.0
2017-Mar-22 02:31N 39°26' W 000°20'0 0.0
2017-Mar-22 01:31N 39°26' W 000°20'0 0.0
2017-Mar-22 00:31N 39°26' W 000°20'0 0.0
2017-Mar-21 23:33N 39°26' W 000°20'0 0.0
2017-Mar-21 22:33N 39°26' W 000°20'0 0.0
2017-Mar-21 21:33N 39°26' W 000°20'0 0.0
2017-Mar-21 20:33N 39°26' W 000°20'0 0.0
2017-Mar-21 19:33N 39°26' W 000°20'0 0.0
2017-Mar-21 18:33N 39°26' W 000°20'0 0.0
2017-Mar-21 17:33N 39°26' W 000°20'0 0.0
2017-Mar-21 16:33N 39°26' W 000°20'0 0.0
2017-Mar-21 15:33N 39°26' W 000°20'0 0.0
2017-Mar-21 14:33N 39°26' W 000°20'0 0.0
2017-Mar-21 13:33N 39°26' W 000°20'0 0.0
2017-Mar-21 12:33N 39°26' W 000°20'0 0.0
2017-Mar-21 11:33N 39°26' W 000°20'0 0.0
2017-Mar-21 10:33N 39°26' W 000°20'0 0.0
2017-Mar-21 09:33N 39°26' W 000°20'0 0.0
2017-Mar-21 08:30N 39°26' W 000°20'0 0.0
2017-Mar-21 07:33N 39°26' W 000°20'0 0.0
2017-Mar-21 06:33N 39°26' W 000°20'1 0.6
2017-Mar-21 05:33N 39°26' W 000°19'4 4.2
2017-Mar-21 04:33N 39°26' W 000°13'1110.7
2017-Mar-21 03:33N 39°33' W 000°03'1514.8
2017-Mar-21 02:33N 39°43' E 000°11'1515.2
2017-Mar-21 01:33N 39°54' E 000°25'1515.3
2017-Mar-21 00:33N 40°04' E 000°39'1515.4
2017-Mar-20 23:33N 40°15' E 000°54'1616.2
2017-Mar-20 22:33N 40°26' E 001°10'1716.7
2017-Mar-20 21:33N 40°37' E 001°26'1716.8
2017-Mar-20 20:33N 40°50' E 001°41'1716.9
2017-Mar-20 19:33N 41°03' E 001°55'1717.1
2017-Mar-20 18:33N 41°16' E 002°10'3 1.5
2017-Mar-20 16:31N 41°19' E 002°09'0 0.0
2017-Mar-20 15:31N 41°19' E 002°09'0 0.0
2017-Mar-20 14:31N 41°19' E 002°09'0 0.0
2017-Mar-20 13:31N 41°19' E 002°09'0 0.0
2017-Mar-20 12:31N 41°19' E 002°09'0 0.0
2017-Mar-20 11:28N 41°19' E 002°09'0 0.0
2017-Mar-20 10:25N 41°19' E 002°09'0 0.0
2017-Mar-20 09:31N 41°19' E 002°09'0 0.0
2017-Mar-20 08:31N 41°19' E 002°09'0 0.0
2017-Mar-20 07:31N 41°19' E 002°09'0 0.0
2017-Mar-20 06:31N 41°19' E 002°09'0 0.0
2017-Mar-20 05:28N 41°19' E 002°09'0 0.0
2017-Mar-20 03:31N 41°19' E 002°09'0 0.0
2017-Mar-20 02:31N 41°19' E 002°09'0 0.0
2017-Mar-20 01:25N 41°19' E 002°09'0 0.0
2017-Mar-20 00:31N 41°19' E 002°09'0 0.0
2017-Mar-19 23:31N 41°19' E 002°09'0 0.0
2017-Mar-19 22:28N 41°19' E 002°09'0 0.0
2017-Mar-19 21:22N 41°19' E 002°09'0 0.0
2017-Mar-19 20:31N 41°19' E 002°09'0 0.0
2017-Mar-19 19:31N 41°19' E 002°09'0 0.0
2017-Mar-19 17:31N 41°19' E 002°09'0 0.0
2017-Mar-19 16:31N 41°19' E 002°09'0 0.0
2017-Mar-19 15:13N 41°19' E 002°09'0 0.0
2017-Mar-19 14:31N 41°19' E 002°09'0 0.0
2017-Mar-19 13:25N 41°19' E 002°09'0 0.0
2017-Mar-19 12:31N 41°19' E 002°09'0 0.0
2017-Mar-19 11:33N 41°19' E 002°09'2 1.6
2017-Mar-19 10:30N 41°18' E 002°11'9 9.9
2017-Mar-19 09:33N 41°13' E 002°21'1212.2
2017-Mar-19 08:33N 41°07' E 002°36'1515.2
2017-Mar-19 07:33N 41°00' E 002°54'1616.4
2017-Mar-19 06:33N 40°52' E 003°13'1717.3
2017-Mar-19 05:33N 40°44' E 003°33'3316.7
2017-Mar-19 03:33N 40°29' E 004°12'1716.6
2017-Mar-19 02:33N 40°21' E 004°31'7517.0
2017-Mar-18 22:10N 39°46' E 005°57'8818.3
2017-Mar-18 17:21N 39°04' E 007°38'5318.1
2017-Mar-18 14:26N 38°45' E 008°41'2418.3
2017-Mar-18 13:08N 38°46' E 009°12'1018.1
2017-Mar-18 12:33N 38°46' E 009°25'7718.3
2017-Mar-18 08:20N 38°48' E 011°04'8618.0
2017-Mar-18 03:33N 38°50' E 012°54'3617.9
2017-Mar-18 01:32N 38°48' E 013°41'3718.3
2017-Mar-17 23:31N 38°45' E 014°28'1818.5
2017-Mar-17 22:33N 38°44' E 014°51'1818.4
2017-Mar-17 21:33N 38°41' E 015°14'1918.6
2017-Mar-17 20:33N 38°33' E 015°35'1515.4
2017-Mar-17 19:34N 38°27' E 015°53'1 0.7
2017-Mar-17 18:15N 38°27' E 015°54'0 0.0
2017-Mar-17 15:30N 38°27' E 015°54'0 0.0
2017-Mar-17 14:18N 38°27' E 015°54'0 0.0
2017-Mar-17 13:33N 38°27' E 015°54'0 0.0
2017-Mar-17 12:33N 38°27' E 015°54'0 0.0
2017-Mar-17 11:24N 38°27' E 015°54'0 0.0
2017-Mar-17 10:27N 38°27' E 015°54'0 0.0
2017-Mar-17 09:24N 38°27' E 015°54'0 0.0
2017-Mar-17 08:24N 38°27' E 015°54'0 0.0
2017-Mar-17 07:15N 38°27' E 015°54'0 0.0
2017-Mar-17 06:24N 38°27' E 015°54'0 0.0
2017-Mar-17 05:33N 38°27' E 015°54'3 3.2
2017-Mar-17 04:33N 38°26' E 015°50'1110.7
2017-Mar-17 03:33N 38°17' E 015°44'1313.0
2017-Mar-17 02:34N 38°05' E 015°36'1818.4
2017-Mar-17 01:34N 37°47' E 015°34'2019.4
2017-Mar-17 00:32N 37°27' E 015°33'5818.9
2017-Mar-16 21:29N 36°31' E 015°13'1819.3
2017-Mar-16 20:33N 36°17' E 014°60'1919.0
2017-Mar-16 19:33N 36°02' E 014°46'1616.5
2017-Mar-16 18:33N 35°48' E 014°35'2 1.6
2017-Mar-16 17:13N 35°49' E 014°33'0 0.0
2017-Mar-16 16:31N 35°49' E 014°33'0 0.0
2017-Mar-16 13:22N 35°49' E 014°33'0 0.0
2017-Mar-16 12:25N 35°49' E 014°33'0 0.0
2017-Mar-16 11:33N 35°49' E 014°33'0 0.0
2017-Mar-16 10:33N 35°49' E 014°33'0 0.0
2017-Mar-16 09:32N 35°49' E 014°33'0 0.0
2017-Mar-16 07:31N 35°49' E 014°33'0 0.0
2017-Mar-16 06:28N 35°49' E 014°33'0 0.0
2017-Mar-16 03:15N 35°49' E 014°33'0 0.0
2017-Mar-16 02:27N 35°49' E 014°33'0 0.0
2017-Mar-15 23:12N 35°49' E 014°33'0 0.0
2017-Mar-15 22:33N 35°49' E 014°33'3 3.3
2017-Mar-15 21:33N 35°48' E 014°36'10 9.8
2017-Mar-15 20:33N 35°45' E 014°48'  
Track history (hours):
 
Tides and Currents Weather Stations Pressure Air Temp Water Temp Dewpoint Dewpoint Depression Visibility Wind Speed Wind Dir Waves Ship Positions

MSC Bettina

Last reported at 2017-Mar-23 11:33 UTC. Time now 2017-Mar-23 22:23 UTC.
Position N 41°04' E 003°31'.

Length 366 m; draft 12 m.

Type: Ship (hazmat cat A). MMSI: 352361000.

Date/timePositionNaut miles runAvg speedWind from/ knotsBaromVisibWave heightAir tempDewpointWater temp
2017-Mar-23 11:33N 41°04' E 003°31'1515.3
2017-Mar-23 10:33N 40°56' E 003°14'1919.5
2017-Mar-23 09:33N 40°46' E 002°52'2020.0
2017-Mar-23 08:33N 40°36' E 002°30'2019.7
2017-Mar-23 07:33N 40°25' E 002°08'2019.6
2017-Mar-23 06:33N 40°15' E 001°46'2019.9
2017-Mar-23 05:34N 40°04' E 001°24'8220.5
2017-Mar-23 01:34N 39°27' W 000°11'7 6.7
2017-Mar-23 00:33N 39°26' W 000°20'0 0.0
2017-Mar-22 23:31N 39°26' W 000°20'0 0.0
2017-Mar-22 22:31N 39°26' W 000°20'0 0.0
2017-Mar-22 21:31N 39°26' W 000°20'0 0.0
2017-Mar-22 20:31N 39°26' W 000°20'0 0.0
2017-Mar-22 19:31N 39°26' W 000°20'0 0.0
2017-Mar-22 18:31N 39°26' W 000°20'0 0.0
2017-Mar-22 17:31N 39°26' W 000°20'0 0.0
2017-Mar-22 16:31N 39°26' W 000°20'0 0.0
2017-Mar-22 15:31N 39°26' W 000°20'0 0.0
2017-Mar-22 14:31N 39°26' W 000°20'0 0.0
2017-Mar-22 13:31N 39°26' W 000°20'0 0.0
2017-Mar-22 12:31N 39°26' W 000°20'0 0.0
2017-Mar-22 11:31N 39°26' W 000°20'0 0.0
2017-Mar-22 10:31N 39°26' W 000°20'0 0.0
2017-Mar-22 09:31N 39°26' W 000°20'0 0.0
2017-Mar-22 08:31N 39°26' W 000°20'0 0.0
2017-Mar-22 07:31N 39°26' W 000°20'0 0.0
2017-Mar-22 06:31N 39°26' W 000°20'0 0.0
2017-Mar-22 05:31N 39°26' W 000°20'0 0.0
2017-Mar-22 04:31N 39°26' W 000°20'0 0.0
2017-Mar-22 03:31N 39°26' W 000°20'0 0.0
2017-Mar-22 02:31N 39°26' W 000°20'0 0.0
2017-Mar-22 01:31N 39°26' W 000°20'0 0.0
2017-Mar-22 00:31N 39°26' W 000°20'0 0.0
2017-Mar-21 23:33N 39°26' W 000°20'0 0.0
2017-Mar-21 22:33N 39°26' W 000°20'0 0.0
2017-Mar-21 21:33N 39°26' W 000°20'0 0.0
2017-Mar-21 20:33N 39°26' W 000°20'0 0.0
2017-Mar-21 19:33N 39°26' W 000°20'0 0.0
2017-Mar-21 18:33N 39°26' W 000°20'0 0.0
2017-Mar-21 17:33N 39°26' W 000°20'0 0.0
2017-Mar-21 16:33N 39°26' W 000°20'0 0.0
2017-Mar-21 15:33N 39°26' W 000°20'0 0.0
2017-Mar-21 14:33N 39°26' W 000°20'0 0.0
2017-Mar-21 13:33N 39°26' W 000°20'0 0.0
2017-Mar-21 12:33N 39°26' W 000°20'0 0.0
2017-Mar-21 11:33N 39°26' W 000°20'0 0.0
2017-Mar-21 10:33N 39°26' W 000°20'0 0.0
2017-Mar-21 09:33N 39°26' W 000°20'0 0.0
2017-Mar-21 08:30N 39°26' W 000°20'0 0.0
2017-Mar-21 07:33N 39°26' W 000°20'0 0.0
2017-Mar-21 06:33N 39°26' W 000°20'1 0.6
2017-Mar-21 05:33N 39°26' W 000°19'4 4.2
2017-Mar-21 04:33N 39°26' W 000°13'1110.7
2017-Mar-21 03:33N 39°33' W 000°03'1514.8
2017-Mar-21 02:33N 39°43' E 000°11'1515.2
2017-Mar-21 01:33N 39°54' E 000°25'1515.3
2017-Mar-21 00:33N 40°04' E 000°39'1515.4
2017-Mar-20 23:33N 40°15' E 000°54'1616.2
2017-Mar-20 22:33N 40°26' E 001°10'1716.7
2017-Mar-20 21:33N 40°37' E 001°26'1716.8
2017-Mar-20 20:33N 40°50' E 001°41'1716.9
2017-Mar-20 19:33N 41°03' E 001°55'1717.1
2017-Mar-20 18:33N 41°16' E 002°10'3 1.5
2017-Mar-20 16:31N 41°19' E 002°09'0 0.0
2017-Mar-20 15:31N 41°19' E 002°09'0 0.0
2017-Mar-20 14:31N 41°19' E 002°09'0 0.0
2017-Mar-20 13:31N 41°19' E 002°09'0 0.0
2017-Mar-20 12:31N 41°19' E 002°09'0 0.0
2017-Mar-20 11:28N 41°19' E 002°09'0 0.0
2017-Mar-20 10:25N 41°19' E 002°09'0 0.0
2017-Mar-20 09:31N 41°19' E 002°09'0 0.0
2017-Mar-20 08:31N 41°19' E 002°09'0 0.0
2017-Mar-20 07:31N 41°19' E 002°09'0 0.0
2017-Mar-20 06:31N 41°19' E 002°09'0 0.0
2017-Mar-20 05:28N 41°19' E 002°09'0 0.0
2017-Mar-20 03:31N 41°19' E 002°09'0 0.0
2017-Mar-20 02:31N 41°19' E 002°09'0 0.0
2017-Mar-20 01:25N 41°19' E 002°09'0 0.0
2017-Mar-20 00:31N 41°19' E 002°09'0 0.0
2017-Mar-19 23:31N 41°19' E 002°09'0 0.0
2017-Mar-19 22:28N 41°19' E 002°09'0 0.0
2017-Mar-19 21:22N 41°19' E 002°09'0 0.0
2017-Mar-19 20:31N 41°19' E 002°09'0 0.0
2017-Mar-19 19:31N 41°19' E 002°09'0 0.0
2017-Mar-19 17:31N 41°19' E 002°09'0 0.0
2017-Mar-19 16:31N 41°19' E 002°09'0 0.0
2017-Mar-19 15:13N 41°19' E 002°09'0 0.0
2017-Mar-19 14:31N 41°19' E 002°09'0 0.0
2017-Mar-19 13:25N 41°19' E 002°09'0 0.0
2017-Mar-19 12:31N 41°19' E 002°09'0 0.0
2017-Mar-19 11:33N 41°19' E 002°09'2 1.6
2017-Mar-19 10:30N 41°18' E 002°11'9 9.9
2017-Mar-19 09:33N 41°13' E 002°21'1212.2
2017-Mar-19 08:33N 41°07' E 002°36'1515.2
2017-Mar-19 07:33N 41°00' E 002°54'1616.4
2017-Mar-19 06:33N 40°52' E 003°13'1717.3
2017-Mar-19 05:33N 40°44' E 003°33'3316.7
2017-Mar-19 03:33N 40°29' E 004°12'1716.6
2017-Mar-19 02:33N 40°21' E 004°31'7517.0
2017-Mar-18 22:10N 39°46' E 005°57'8818.3
2017-Mar-18 17:21N 39°04' E 007°38'5318.1
2017-Mar-18 14:26N 38°45' E 008°41'2418.3
2017-Mar-18 13:08N 38°46' E 009°12'1018.1
2017-Mar-18 12:33N 38°46' E 009°25'7718.3
2017-Mar-18 08:20N 38°48' E 011°04'8618.0
2017-Mar-18 03:33N 38°50' E 012°54'3617.9
2017-Mar-18 01:32N 38°48' E 013°41'3718.3
2017-Mar-17 23:31N 38°45' E 014°28'1818.5
2017-Mar-17 22:33N 38°44' E 014°51'1818.4
2017-Mar-17 21:33N 38°41' E 015°14'1918.6
2017-Mar-17 20:33N 38°33' E 015°35'1515.4
2017-Mar-17 19:34N 38°27' E 015°53'1 0.7
2017-Mar-17 18:15N 38°27' E 015°54'0 0.0
2017-Mar-17 15:30N 38°27' E 015°54'0 0.0
2017-Mar-17 14:18N 38°27' E 015°54'0 0.0
2017-Mar-17 13:33N 38°27' E 015°54'0 0.0
2017-Mar-17 12:33N 38°27' E 015°54'0 0.0
2017-Mar-17 11:24N 38°27' E 015°54'0 0.0
2017-Mar-17 10:27N 38°27' E 015°54'0 0.0
2017-Mar-17 09:24N 38°27' E 015°54'0 0.0
2017-Mar-17 08:24N 38°27' E 015°54'0 0.0
2017-Mar-17 07:15N 38°27' E 015°54'0 0.0
2017-Mar-17 06:24N 38°27' E 015°54'0 0.0
2017-Mar-17 05:33N 38°27' E 015°54'3 3.2
2017-Mar-17 04:33N 38°26' E 015°50'1110.7
2017-Mar-17 03:33N 38°17' E 015°44'1313.0
2017-Mar-17 02:34N 38°05' E 015°36'1818.4
2017-Mar-17 01:34N 37°47' E 015°34'2019.4
2017-Mar-17 00:32N 37°27' E 015°33'5818.9
2017-Mar-16 21:29N 36°31' E 015°13'1819.3
2017-Mar-16 20:33N 36°17' E 014°60'1919.0
2017-Mar-16 19:33N 36°02' E 014°46'1616.5
2017-Mar-16 18:33N 35°48' E 014°35'2 1.6
2017-Mar-16 17:13N 35°49' E 014°33'0 0.0
2017-Mar-16 16:31N 35°49' E 014°33'0 0.0
2017-Mar-16 13:22N 35°49' E 014°33'0 0.0
2017-Mar-16 12:25N 35°49' E 014°33'0 0.0
2017-Mar-16 11:33N 35°49' E 014°33'0 0.0
2017-Mar-16 10:33N 35°49' E 014°33'0 0.0
2017-Mar-16 09:32N 35°49' E 014°33'0 0.0
2017-Mar-16 07:31N 35°49' E 014°33'0 0.0
2017-Mar-16 06:28N 35°49' E 014°33'0 0.0
2017-Mar-16 03:15N 35°49' E 014°33'0 0.0
2017-Mar-16 02:27N 35°49' E 014°33'0 0.0
2017-Mar-15 23:12N 35°49' E 014°33'0 0.0
2017-Mar-15 22:33N 35°49' E 014°33'3 3.3
2017-Mar-15 21:33N 35°48' E 014°36'10 9.8
2017-Mar-15 20:33N 35°45' E 014°48'  

Dump ship's entire track history